Time;durP1;ratioP1;P1;durP2;ratioP2;P2;SDS_P1;SDS_P2;PMS_P1;PMS_P2;Temp;Humidity;BMP_temperature;BMP_pressure;BME280_temperature;BME280_humidity;BME280_pressure;Samples;Min_cycle;Max_cycle;Signal;HPM_P1;HPM_P2
2022/06/24 00:02:05;;;;;;;5.18;2.30;;;;;;;;;;10189359;29;20436;-85
2022/06/24 00:07:15;;;;;;;4.80;2.42;;;;;;;;;;10188571;29;20512;-85
2022/06/24 00:12:20;;;;;;;3.92;2.70;;;;;;;;;;10191773;29;20418;-85
2022/06/24 00:17:22;;;;;;;5.70;3.33;;;;;;;;;;10185603;29;20851;-84
2022/06/24 00:22:24;;;;;;;5.32;2.85;;;;;;;;;;10187342;29;20409;-84
2022/06/24 00:27:27;;;;;;;4.30;2.70;;;;;;;;;;10186957;29;20516;-85
2022/06/24 00:32:33;;;;;;;4.43;2.70;;;;;;;;;;10186624;29;20492;-85
2022/06/24 00:37:36;;;;;;;6.03;3.20;;;;;;;;;;10179934;29;20445;-85
2022/06/24 00:42:41;;;;;;;4.55;2.90;;;;;;;;;;10181566;29;20431;-85
2022/06/24 00:47:43;;;;;;;4.93;2.40;;;;;;;;;;10184178;29;20429;-85
2022/06/24 00:52:45;;;;;;;4.67;2.60;;;;;;;;;;10190963;29;20410;-84
2022/06/24 00:57:49;;;;;;;4.57;2.90;;;;;;;;;;10183476;29;20419;-85
2022/06/24 01:02:51;;;;;;;5.95;2.60;;;;;;;;;;10187815;29;20513;-85
2022/06/24 01:07:53;;;;;;;5.88;3.20;;;;;;;;;;10188536;29;20525;-85
2022/06/24 01:12:56;;;;;;;4.20;3.20;;;;;;;;;;10241343;23;20458;-85
2022/06/24 01:17:58;;;;;;;5.13;2.70;;;;;;;;;;10266106;28;20501;-85
2022/06/24 01:23:02;;;;;;;5.70;3.57;;;;;;;;;;10271916;28;20494;-85
2022/06/24 01:28:04;;;;;;;6.35;3.50;;;;;;;;;;10266040;28;20418;-85
2022/06/24 01:33:06;;;;;;;6.03;3.20;;;;;;;;;;10266322;28;20548;-86
2022/06/24 01:38:09;;;;;;;5.07;3.35;;;;;;;;;;10271315;28;20438;-84
2022/06/24 01:43:11;;;;;;;5.20;3.22;;;;;;;;;;10269498;28;20497;-85
2022/06/24 01:48:13;;;;;;;5.13;3.45;;;;;;;;;;10269955;28;20438;-84
2022/06/24 01:53:16;;;;;;;5.28;3.67;;;;;;;;;;10263855;28;20431;-85
2022/06/24 01:58:18;;;;;;;4.70;3.40;;;;;;;;;;10250239;28;20406;-85
2022/06/24 02:03:20;;;;;;;5.05;3.40;;;;;;;;;;10274658;28;20929;-85
2022/06/24 02:08:24;;;;;;;5.50;3.60;;;;;;;;;;10281097;28;20540;-86
2022/06/24 02:13:29;;;;;;;8.00;4.32;;;;;;;;;;10281396;28;20913;-85
2022/06/24 02:18:32;;;;;;;5.20;4.07;;;;;;;;;;10274037;28;20525;-85
2022/06/24 02:23:35;;;;;;;6.90;4.70;;;;;;;;;;10280894;28;20410;-85
2022/06/24 02:28:38;;;;;;;7.53;4.47;;;;;;;;;;10250000;28;20435;-85
2022/06/24 02:33:40;;;;;;;6.22;4.32;;;;;;;;;;10260650;28;20431;-85
2022/06/24 02:38:43;;;;;;;8.40;4.43;;;;;;;;;;10242577;28;20404;-84
2022/06/24 02:43:45;;;;;;;6.15;4.60;;;;;;;;;;10265944;28;20503;-86
2022/06/24 02:48:47;;;;;;;7.90;4.60;;;;;;;;;;10272553;28;20774;-84
2022/06/24 02:53:50;;;;;;;6.47;4.90;;;;;;;;;;10265848;28;20420;-85
2022/06/24 02:58:52;;;;;;;7.35;5.20;;;;;;;;;;10278938;28;20455;-84
2022/06/24 03:03:54;;;;;;;7.28;5.15;;;;;;;;;;10270754;28;20414;-85
2022/06/24 03:08:57;;;;;;;7.30;5.35;;;;;;;;;;10265286;28;20422;-85
2022/06/24 03:13:59;;;;;;;6.72;5.28;;;;;;;;;;10262017;28;20605;-84
2022/06/24 03:19:01;;;;;;;7.82;5.63;;;;;;;;;;10262666;28;20442;-84
2022/06/24 03:24:04;;;;;;;7.53;5.60;;;;;;;;;;10265098;28;20490;-84
2022/06/24 03:29:06;;;;;;;8.77;5.83;;;;;;;;;;10278611;28;20430;-85
2022/06/24 03:34:08;;;;;;;10.70;5.87;;;;;;;;;;10264983;28;20521;-85
2022/06/24 03:39:11;;;;;;;7.78;5.43;;;;;;;;;;10277857;28;20869;-85
2022/06/24 03:44:13;;;;;;;7.00;5.47;;;;;;;;;;10275910;28;20420;-85
2022/06/24 03:49:15;;;;;;;8.30;5.63;;;;;;;;;;10261819;28;20804;-84
2022/06/24 03:54:19;;;;;;;7.72;5.65;;;;;;;;;;10257129;28;20477;-85
2022/06/24 03:59:20;;;;;;;7.80;5.78;;;;;;;;;;10273954;28;20493;-84
2022/06/24 04:04:22;;;;;;;8.85;7.05;;;;;;;;;;10272617;28;21265;-84
2022/06/24 04:09:25;;;;;;;11.95;7.80;;;;;;;;;;10263707;28;20950;-85
2022/06/24 04:19:46;;;;;;;12.90;7.68;;;;;;;;;;10265145;28;20414;-85
2022/06/24 04:24:50;;;;;;;10.80;7.60;;;;;;;;;;10263252;28;20962;-85
2022/06/24 04:29:51;;;;;;;13.63;7.22;;;;;;;;;;10258699;28;20440;-84
2022/06/24 04:34:53;;;;;;;10.73;7.25;;;;;;;;;;10265846;28;20434;-85
2022/06/24 04:39:59;;;;;;;10.30;7.30;;;;;;;;;;10263114;28;20894;-86
2022/06/24 04:45:01;;;;;;;11.17;7.20;;;;;;;;;;10266395;28;20413;-85
2022/06/24 04:50:04;;;;;;;10.70;6.47;;;;;;;;;;10268992;28;20926;-85
2022/06/24 04:55:08;;;;;;;9.68;7.05;;;;;;;;;;10263871;28;20795;-84
2022/06/24 05:00:11;;;;;;;8.65;6.43;;;;;;;;;;10267311;28;20491;-85
2022/06/24 05:05:13;;;;;;;9.77;6.55;;;;;;;;;;10261812;28;20925;-84
2022/06/24 05:10:16;;;;;;;10.02;6.45;;;;;;;;;;10271057;28;20523;-85
2022/06/24 05:15:18;;;;;;;7.00;5.65;;;;;;;;;;10261263;28;20412;-84
2022/06/24 05:20:20;;;;;;;10.57;5.45;;;;;;;;;;10276223;28;20420;-84
2022/06/24 05:25:23;;;;;;;8.18;5.47;;;;;;;;;;10274816;28;20406;-86
2022/06/24 05:30:25;;;;;;;9.03;5.47;;;;;;;;;;10271438;28;20839;-84
2022/06/24 05:35:27;;;;;;;8.05;5.63;;;;;;;;;;10270485;28;20422;-85
2022/06/24 05:40:30;;;;;;;9.15;5.70;;;;;;;;;;10258295;28;20414;-86
2022/06/24 05:45:33;;;;;;;10.13;5.40;;;;;;;;;;10262691;28;20952;-85
2022/06/24 05:50:37;;;;;;;8.93;5.60;;;;;;;;;;10273106;28;20442;-85
2022/06/24 05:55:40;;;;;;;9.82;5.95;;;;;;;;;;10269215;28;20417;-84
2022/06/24 06:00:42;;;;;;;10.02;6.40;;;;;;;;;;10267616;28;20487;-82
2022/06/24 06:05:44;;;;;;;10.07;6.15;;;;;;;;;;10261326;28;20434;-82
2022/06/24 06:10:49;;;;;;;13.10;7.13;;;;;;;;;;10270656;28;21686;-84
2022/06/24 06:15:50;;;;;;;12.93;6.90;;;;;;;;;;10260669;28;20419;-84
2022/06/24 06:20:52;;;;;;;13.00;6.90;;;;;;;;;;10273950;28;20415;-83
2022/06/24 06:25:56;;;;;;;12.23;7.88;;;;;;;;;;10278144;28;20473;-84
2022/06/24 06:30:58;;;;;;;13.43;8.00;;;;;;;;;;10268567;28;20517;-84
2022/06/24 06:36:04;;;;;;;13.90;7.57;;;;;;;;;;10263180;28;20423;-83
2022/06/24 06:41:07;;;;;;;13.65;7.65;;;;;;;;;;10258287;28;20405;-83
2022/06/24 06:46:10;;;;;;;15.05;8.98;;;;;;;;;;10271338;28;20410;-83
2022/06/24 06:51:12;;;;;;;17.02;8.00;;;;;;;;;;10270272;28;20447;-84
2022/06/24 06:56:15;;;;;;;14.15;8.30;;;;;;;;;;10269948;28;20495;-84
2022/06/24 07:01:18;;;;;;;14.48;8.02;;;;;;;;;;10258098;28;20406;-85
2022/06/24 07:06:19;;;;;;;13.82;8.10;;;;;;;;;;10255311;28;20482;-84
2022/06/24 07:11:23;;;;;;;13.27;8.00;;;;;;;;;;10256311;28;20434;-84
2022/06/24 07:16:24;;;;;;;15.60;8.45;;;;;;;;;;10263839;28;20418;-84
2022/06/24 07:21:26;;;;;;;20.35;8.73;;;;;;;;;;10265742;28;20419;-84
2022/06/24 07:26:29;;;;;;;11.90;7.93;;;;;;;;;;10250695;28;20414;-85
2022/06/24 07:31:31;;;;;;;19.00;9.73;;;;;;;;;;10258419;28;20433;-84
2022/06/24 07:36:36;;;;;;;16.47;8.63;;;;;;;;;;10267626;28;20408;-84
2022/06/24 07:41:39;;;;;;;13.50;8.30;;;;;;;;;;10264581;28;20486;-85
2022/06/24 07:46:41;;;;;;;17.87;10.50;;;;;;;;;;10269537;28;20423;-85
2022/06/24 07:51:43;;;;;;;13.48;8.98;;;;;;;;;;10272458;28;20433;-84
2022/06/24 07:56:58;;;;;;;16.38;9.45;;;;;;;;;;10267061;28;20493;-84
2022/06/24 08:02:01;;;;;;;16.77;9.65;;;;;;;;;;10254364;28;20501;-84
2022/06/24 08:07:04;;;;;;;19.88;10.15;;;;;;;;;;10255897;28;20481;-84
2022/06/24 08:12:08;;;;;;;16.80;10.60;;;;;;;;;;10266667;28;20442;-86
2022/06/24 08:17:10;;;;;;;20.15;10.63;;;;;;;;;;10267692;28;20418;-87
2022/06/24 08:22:12;;;;;;;16.33;9.13;;;;;;;;;;10263155;28;20505;-86
2022/06/24 08:27:15;;;;;;;15.73;9.50;;;;;;;;;;10256180;28;21415;-85
2022/06/24 08:32:18;;;;;;;20.92;9.48;;;;;;;;;;10244002;28;20419;-86
2022/06/24 08:37:20;;;;;;;19.07;9.30;;;;;;;;;;10249192;28;20421;-86
2022/06/24 08:42:28;;;;;;;16.75;9.05;;;;;;;;;;10248639;28;20418;-84
2022/06/24 08:47:29;;;;;;;21.53;8.60;;;;;;;;;;10258502;28;20414;-86
2022/06/24 08:52:31;;;;;;;16.73;8.48;;;;;;;;;;10252640;28;20523;-87
2022/06/24 08:57:35;;;;;;;17.08;7.57;;;;;;;;;;10250351;28;20499;-86
2022/06/24 09:02:36;;;;;;;16.27;8.50;;;;;;;;;;10245911;28;20519;-84
2022/06/24 09:07:38;;;;;;;13.60;7.00;;;;;;;;;;10245162;28;20785;-84
2022/06/24 09:12:43;;;;;;;10.60;6.18;;;;;;;;;;10246560;28;20458;-85
2022/06/24 09:17:45;;;;;;;14.80;6.70;;;;;;;;;;10243141;28;20420;-84
2022/06/24 09:22:48;;;;;;;17.90;8.10;;;;;;;;;;10242188;28;20412;-85
2022/06/24 09:27:51;;;;;;;10.40;6.00;;;;;;;;;;10244995;28;20919;-84
2022/06/24 09:32:55;;;;;;;12.45;6.90;;;;;;;;;;10245710;28;20460;-84
2022/06/24 09:37:57;;;;;;;15.25;6.80;;;;;;;;;;10244185;28;20430;-84
2022/06/24 09:43:02;;;;;;;16.30;6.33;;;;;;;;;;10243444;28;20422;-85
2022/06/24 09:48:05;;;;;;;15.10;6.03;;;;;;;;;;10248740;28;20553;-85
2022/06/24 09:53:08;;;;;;;14.43;6.40;;;;;;;;;;10253005;28;20475;-85
2022/06/24 09:58:13;;;;;;;13.82;6.03;;;;;;;;;;10278104;28;20423;-85
2022/06/24 10:03:15;;;;;;;14.05;5.30;;;;;;;;;;10264281;28;20399;-85
2022/06/24 10:08:19;;;;;;;10.43;4.82;;;;;;;;;;10264939;28;20414;-84
2022/06/24 10:13:29;;;;;;;16.80;5.50;;;;;;;;;;10266529;28;20916;-87
2022/06/24 10:18:34;;;;;;;12.27;5.57;;;;;;;;;;10282208;28;20422;-89
2022/06/24 10:23:43;;;;;;;12.82;5.70;;;;;;;;;;10267744;28;20463;-90
2022/06/24 10:29:21;;;;;;;12.68;5.07;;;;;;;;;;10277764;28;20507;-88
2022/06/24 10:34:37;;;;;;;12.97;4.60;;;;;;;;;;10274424;28;20429;-91
2022/06/24 10:39:47;;;;;;;12.25;3.83;;;;;;;;;;10259911;28;20485;-88
2022/06/24 10:44:59;;;;;;;11.77;4.30;;;;;;;;;;10271197;28;20879;-88
2022/06/24 10:50:20;;;;;;;10.15;4.00;;;;;;;;;;10256654;28;20433;-88
2022/06/24 10:55:42;;;;;;;12.55;4.47;;;;;;;;;;10270658;28;20897;-89
2022/06/24 11:06:09;;;;;;;10.82;4.43;;;;;;;;;;10263903;28;21497;-86
2022/06/24 11:11:24;;;;;;;10.77;4.53;;;;;;;;;;10266263;28;20435;-88
2022/06/24 11:16:30;;;;;;;10.10;3.83;;;;;;;;;;10256700;28;20779;-88
2022/06/24 11:21:48;;;;;;;13.98;4.13;;;;;;;;;;10258068;28;20424;-88
2022/06/24 11:27:08;;;;;;;10.40;3.60;;;;;;;;;;10260072;28;20430;-90
2022/06/24 11:32:13;;;;;;;11.83;3.50;;;;;;;;;;10255666;28;20430;-89
2022/06/24 11:37:22;;;;;;;8.77;3.27;;;;;;;;;;10249880;28;20776;-83
2022/06/24 11:42:26;;;;;;;11.38;3.72;;;;;;;;;;10242905;28;20416;-83
2022/06/24 11:47:34;;;;;;;13.77;3.05;;;;;;;;;;10248712;28;20430;-83
2022/06/24 11:52:48;;;;;;;9.13;2.20;;;;;;;;;;10247684;28;20915;-84
2022/06/24 11:57:55;;;;;;;7.20;2.10;;;;;;;;;;10241790;28;20414;-82
2022/06/24 12:03:00;;;;;;;8.02;1.95;;;;;;;;;;10243283;28;20502;-83
2022/06/24 12:08:05;;;;;;;10.48;2.00;;;;;;;;;;10247939;28;21083;-86
2022/06/24 12:13:10;;;;;;;6.33;1.80;;;;;;;;;;10239496;28;20528;-85
2022/06/24 12:18:15;;;;;;;6.05;1.70;;;;;;;;;;10248214;28;20513;-83
2022/06/24 12:23:19;;;;;;;10.38;1.92;;;;;;;;;;10249331;28;20405;-82
2022/06/24 12:28:23;;;;;;;5.75;1.63;;;;;;;;;;10246829;28;20495;-85
2022/06/24 12:33:28;;;;;;;7.68;1.85;;;;;;;;;;10248143;28;20441;-84
2022/06/24 12:38:29;;;;;;;7.75;1.75;;;;;;;;;;10253909;28;20414;-83
2022/06/24 12:43:31;;;;;;;4.27;1.40;;;;;;;;;;10248969;28;20489;-85
2022/06/24 12:53:54;;;;;;;6.60;1.60;;;;;;;;;;10258533;28;20420;-84
2022/06/24 12:58:56;;;;;;;5.70;1.67;;;;;;;;;;10254067;28;20817;-82
2022/06/24 13:03:59;;;;;;;7.55;1.75;;;;;;;;;;10255975;28;20502;-83
2022/06/24 13:09:01;;;;;;;7.45;2.00;;;;;;;;;;10251477;28;20416;-83
2022/06/24 13:14:04;;;;;;;6.73;1.80;;;;;;;;;;10254855;28;20516;-84
2022/06/24 13:19:08;;;;;;;5.38;1.75;;;;;;;;;;10230719;23;20823;-83
2022/06/24 13:24:10;;;;;;;9.02;2.03;;;;;;;;;;10209758;29;20414;-82
2022/06/24 13:29:12;;;;;;;9.73;1.75;;;;;;;;;;10220023;28;20420;-80
2022/06/24 13:34:15;;;;;;;6.78;1.88;;;;;;;;;;10220559;29;20520;-84
2022/06/24 13:39:17;;;;;;;7.68;2.13;;;;;;;;;;10218182;29;20754;-80
2022/06/24 13:44:19;;;;;;;7.88;1.90;;;;;;;;;;10219238;29;20899;-80
2022/06/24 13:49:22;;;;;;;4.70;1.63;;;;;;;;;;10210197;29;20463;-81
2022/06/24 13:54:23;;;;;;;4.73;1.77;;;;;;;;;;10216307;29;20420;-80
2022/06/24 13:59:25;;;;;;;7.95;1.90;;;;;;;;;;10211722;29;21202;-80
2022/06/24 14:04:29;;;;;;;7.25;1.80;;;;;;;;;;10206825;29;20541;-81
2022/06/24 14:09:30;;;;;;;6.78;1.75;;;;;;;;;;10210265;29;20429;-81
2022/06/24 14:14:32;;;;;;;6.80;1.83;;;;;;;;;;10212435;29;20499;-80
2022/06/24 14:19:35;;;;;;;6.70;1.60;;;;;;;;;;10208237;29;20477;-82
2022/06/24 14:24:37;;;;;;;9.32;1.80;;;;;;;;;;10211704;29;20878;-81
2022/06/24 14:29:40;;;;;;;5.53;1.90;;;;;;;;;;10210959;29;20409;-81
2022/06/24 14:34:43;;;;;;;7.40;1.83;;;;;;;;;;10212744;29;20473;-84
2022/06/24 14:45:05;;;;;;;5.17;1.30;;;;;;;;;;10216405;28;20410;-84
2022/06/24 14:50:09;;;;;;;6.63;1.60;;;;;;;;;;10210926;29;20432;-84
2022/06/24 14:55:11;;;;;;;6.73;1.80;;;;;;;;;;10205858;28;20512;-83
2022/06/24 15:00:14;;;;;;;5.25;1.48;;;;;;;;;;10201989;29;20450;-83
2022/06/24 15:05:17;;;;;;;4.45;1.60;;;;;;;;;;10204104;29;21380;-81
2022/06/24 15:10:20;;;;;;;6.28;1.42;;;;;;;;;;10204396;29;20507;-80
2022/06/24 15:15:22;;;;;;;6.63;1.33;;;;;;;;;;10207449;29;20416;-81
2022/06/24 15:20:25;;;;;;;5.30;1.37;;;;;;;;;;10208789;29;20429;-80
2022/06/24 15:25:27;;;;;;;4.22;1.33;;;;;;;;;;10208777;29;20408;-79
2022/06/24 15:30:29;;;;;;;6.28;1.70;;;;;;;;;;10208689;29;20433;-81
2022/06/24 15:35:32;;;;;;;4.82;1.30;;;;;;;;;;10208023;29;20412;-82
2022/06/24 15:40:34;;;;;;;6.00;1.60;;;;;;;;;;10214494;29;20448;-83
2022/06/24 15:45:35;;;;;;;4.70;1.30;;;;;;;;;;10216874;29;20498;-82
2022/06/24 15:50:39;;;;;;;5.00;1.67;;;;;;;;;;10220319;29;20520;-82
2022/06/24 15:55:40;;;;;;;7.93;1.80;;;;;;;;;;10214151;29;20824;-83
2022/06/24 16:00:42;;;;;;;5.70;1.50;;;;;;;;;;10212442;29;20555;-82
2022/06/24 16:05:45;;;;;;;4.90;1.20;;;;;;;;;;10207656;29;20491;-82
2022/06/24 16:10:47;;;;;;;6.87;1.40;;;;;;;;;;10222748;29;20422;-81
2022/06/24 16:15:49;;;;;;;5.53;1.20;;;;;;;;;;10218019;29;20503;-81
2022/06/24 16:20:53;;;;;;;7.60;1.30;;;;;;;;;;10210481;29;20427;-83
2022/06/24 16:31:17;;;;;;;5.50;1.17;;;;;;;;;;10203738;29;20449;-81
2022/06/24 16:36:21;;;;;;;4.10;1.13;;;;;;;;;;10206206;29;20430;-82
2022/06/24 16:41:23;;;;;;;10.57;1.42;;;;;;;;;;10209424;29;20419;-82
2022/06/24 16:46:25;;;;;;;7.25;1.40;;;;;;;;;;10221014;29;20813;-81
2022/06/24 16:51:28;;;;;;;5.00;1.30;;;;;;;;;;10216990;29;20464;-81
2022/06/24 16:56:30;;;;;;;3.87;1.10;;;;;;;;;;10216951;29;21230;-81
2022/06/24 17:01:32;;;;;;;7.03;1.52;;;;;;;;;;10210455;29;20834;-82
2022/06/24 17:06:35;;;;;;;10.27;1.60;;;;;;;;;;10214886;29;20447;-81
2022/06/24 17:11:37;;;;;;;8.30;2.00;;;;;;;;;;10209284;29;20440;-81
2022/06/24 17:16:38;;;;;;;6.38;1.50;;;;;;;;;;10216503;29;20828;-80
2022/06/24 17:21:42;;;;;;;7.63;1.53;;;;;;;;;;10212386;29;20948;-82
2022/06/24 17:26:43;;;;;;;6.05;1.48;;;;;;;;;;10216449;29;20418;-82
2022/06/24 17:31:45;;;;;;;5.37;1.60;;;;;;;;;;10217808;29;20984;-82
2022/06/24 17:36:48;;;;;;;9.68;2.85;;;;;;;;;;10217265;29;20428;-81
2022/06/24 17:41:50;;;;;;;8.55;2.72;;;;;;;;;;10202512;29;20425;-81
2022/06/24 17:46:52;;;;;;;8.23;2.47;;;;;;;;;;10209576;29;20518;-82
2022/06/24 17:51:56;;;;;;;5.82;1.67;;;;;;;;;;10229903;29;20502;-81
2022/06/24 17:56:57;;;;;;;8.63;2.33;;;;;;;;;;10219650;29;20510;-81
2022/06/24 18:02:00;;;;;;;8.35;2.28;;;;;;;;;;10203408;29;21263;-81
2022/06/24 18:07:03;;;;;;;4.80;1.95;;;;;;;;;;10198409;29;20428;-83
2022/06/24 18:12:06;;;;;;;12.13;3.00;;;;;;;;;;10199698;29;20521;-82
2022/06/24 18:17:08;;;;;;;5.30;1.90;;;;;;;;;;10201574;29;21051;-81
2022/06/24 18:22:11;;;;;;;6.43;1.50;;;;;;;;;;10203813;29;20422;-82
2022/06/24 18:27:13;;;;;;;6.18;1.60;;;;;;;;;;10199428;29;20428;-82
2022/06/24 18:32:14;;;;;;;8.48;2.90;;;;;;;;;;10205723;29;20441;-81
2022/06/24 18:37:18;;;;;;;9.23;3.77;;;;;;;;;;10208078;29;20999;-81
2022/06/24 18:42:20;;;;;;;8.80;4.00;;;;;;;;;;10210957;29;20435;-81
2022/06/24 18:47:21;;;;;;;5.88;1.73;;;;;;;;;;10210459;29;20416;-81
2022/06/24 18:52:25;;;;;;;6.85;1.50;;;;;;;;;;10208759;29;20434;-82
2022/06/24 18:57:29;;;;;;;5.28;1.60;;;;;;;;;;10205435;29;20436;-82
2022/06/24 19:02:31;;;;;;;5.78;1.40;;;;;;;;;;10207215;29;20895;-81
2022/06/24 19:07:34;;;;;;;6.25;1.50;;;;;;;;;;10212003;29;20414;-81
2022/06/24 19:12:36;;;;;;;4.73;1.47;;;;;;;;;;10203151;29;20521;-81
2022/06/24 19:17:38;;;;;;;6.25;1.55;;;;;;;;;;10204798;29;20780;-81
2022/06/24 19:22:42;;;;;;;6.30;1.40;;;;;;;;;;10200230;29;20409;-81
2022/06/24 19:27:44;;;;;;;7.33;1.70;;;;;;;;;;10197325;29;20839;-81
2022/06/24 19:32:46;;;;;;;6.25;1.63;;;;;;;;;;10199543;29;20532;-82
2022/06/24 19:37:49;;;;;;;6.70;1.67;;;;;;;;;;10199353;29;20461;-81
2022/06/24 19:42:51;;;;;;;5.53;1.50;;;;;;;;;;10199767;29;20947;-81
2022/06/24 19:47:54;;;;;;;4.70;1.40;;;;;;;;;;10201621;29;20553;-83
2022/06/24 19:52:57;;;;;;;4.67;1.50;;;;;;;;;;10205084;29;20433;-81
2022/06/24 19:57:59;;;;;;;6.65;1.80;;;;;;;;;;10205901;29;20754;-82
2022/06/24 20:08:25;;;;;;;4.03;1.42;;;;;;;;;;10201023;29;20410;-81
2022/06/24 20:13:28;;;;;;;5.15;1.30;;;;;;;;;;10203116;29;20431;-82
2022/06/24 20:18:30;;;;;;;6.95;1.60;;;;;;;;;;10212506;29;20432;-81
2022/06/24 20:23:36;;;;;;;5.95;1.60;;;;;;;;;;10201316;29;20430;-82
2022/06/24 20:28:41;;;;;;;4.82;1.75;;;;;;;;;;10194226;29;20457;-82
2022/06/24 20:33:44;;;;;;;6.00;1.67;;;;;;;;;;10200957;29;20439;-81
2022/06/24 20:38:47;;;;;;;5.53;1.40;;;;;;;;;;10205004;28;20514;-82
2022/06/24 20:43:49;;;;;;;2.05;1.13;;;;;;;;;;10200348;29;20453;-81
2022/06/24 20:48:51;;;;;;;4.30;1.17;;;;;;;;;;10197414;29;20425;-82
2022/06/24 20:53:54;;;;;;;4.57;1.30;;;;;;;;;;10200663;29;20524;-82
2022/06/24 20:58:56;;;;;;;5.07;1.52;;;;;;;;;;10200991;29;20428;-81
2022/06/24 21:03:58;;;;;;;4.75;1.40;;;;;;;;;;10201716;29;20831;-81
2022/06/24 21:09:01;;;;;;;5.00;1.70;;;;;;;;;;10200369;29;20406;-81
2022/06/24 21:14:03;;;;;;;5.68;1.42;;;;;;;;;;10204193;29;20515;-80
2022/06/24 21:19:04;;;;;;;5.78;1.58;;;;;;;;;;10207853;29;20433;-81
2022/06/24 21:24:08;;;;;;;3.50;1.40;;;;;;;;;;10210820;29;20950;-82
2022/06/24 21:29:10;;;;;;;4.15;1.33;;;;;;;;;;10205030;29;20424;-80
2022/06/24 21:34:11;;;;;;;4.95;1.30;;;;;;;;;;10194602;29;20430;-81
2022/06/24 21:39:15;;;;;;;4.60;1.42;;;;;;;;;;10196187;29;20421;-80
2022/06/24 21:44:17;;;;;;;4.18;1.40;;;;;;;;;;10196776;29;20422;-82
2022/06/24 21:49:19;;;;;;;4.55;1.38;;;;;;;;;;10207531;29;20417;-80
2022/06/24 21:54:22;;;;;;;5.15;1.40;;;;;;;;;;10206147;29;20430;-81
2022/06/24 21:59:24;;;;;;;4.57;1.30;;;;;;;;;;10212197;29;20420;-81
2022/06/24 22:04:26;;;;;;;3.90;1.50;;;;;;;;;;10209834;29;20426;-81
2022/06/24 22:09:29;;;;;;;5.13;1.42;;;;;;;;;;10210067;29;20656;-81
2022/06/24 22:14:30;;;;;;;5.38;1.55;;;;;;;;;;10202875;29;20442;-82
2022/06/24 22:19:33;;;;;;;4.13;1.67;;;;;;;;;;10211919;29;20420;-82
2022/06/24 22:24:36;;;;;;;5.35;1.80;;;;;;;;;;10210355;29;20412;-82
2022/06/24 22:29:38;;;;;;;4.53;1.50;;;;;;;;;;10223782;29;20406;-80
2022/06/24 22:34:40;;;;;;;5.55;1.58;;;;;;;;;;10223301;29;20816;-80
2022/06/24 22:39:43;;;;;;;4.03;1.47;;;;;;;;;;10222657;29;20510;-84
2022/06/24 22:44:45;;;;;;;5.57;1.38;;;;;;;;;;10222962;29;20789;-82
2022/06/24 22:49:47;;;;;;;4.50;1.23;;;;;;;;;;10227375;29;20426;-82
2022/06/24 22:54:51;;;;;;;5.83;1.43;;;;;;;;;;10217743;29;20430;-83
2022/06/24 22:59:53;;;;;;;5.10;1.88;;;;;;;;;;10206759;29;20414;-83
2022/06/24 23:04:56;;;;;;;4.60;1.50;;;;;;;;;;10214247;29;20507;-83
2022/06/24 23:09:59;;;;;;;3.60;1.50;;;;;;;;;;10223769;29;20516;-83
2022/06/24 23:15:01;;;;;;;4.88;1.48;;;;;;;;;;10222382;29;20496;-83
2022/06/24 23:20:03;;;;;;;4.63;1.30;;;;;;;;;;10218190;29;20831;-82
2022/06/24 23:25:08;;;;;;;3.17;1.50;;;;;;;;;;10222604;29;20550;-83
2022/06/24 23:30:11;;;;;;;6.53;1.88;;;;;;;;;;10222782;29;20712;-83
2022/06/24 23:35:13;;;;;;;6.67;1.70;;;;;;;;;;10218868;29;20940;-82
2022/06/24 23:40:16;;;;;;;3.20;1.60;;;;;;;;;;10217589;29;20400;-82
2022/06/24 23:45:18;;;;;;;6.35;1.60;;;;;;;;;;10221164;28;20699;-82
2022/06/24 23:55:40;;;;;;;4.75;1.58;;;;;;;;;;10215856;29;20434;-83
